sensor_id;sensor_type;location;lat;lon;timestamp;temperature;humidity
25640;DHT22;13497;48.322;16.204;2022-08-25T00:00:29;21.40;99.90
25640;DHT22;13497;48.322;16.204;2022-08-25T00:02:55;21.40;99.90
25640;DHT22;13497;48.322;16.204;2022-08-25T00:05:24;21.40;99.90
25640;DHT22;13497;48.322;16.204;2022-08-25T00:07:50;21.40;99.90
25640;DHT22;13497;48.322;16.204;2022-08-25T00:10:16;21.30;99.90
25640;DHT22;13497;48.322;16.204;2022-08-25T00:12:41;21.30;99.90
25640;DHT22;13497;48.322;16.204;2022-08-25T00:15:08;21.20;99.90
25640;DHT22;13497;48.322;16.204;2022-08-25T00:17:34;21.10;99.90
25640;DHT22;13497;48.322;16.204;2022-08-25T00:20:00;21.00;99.90
25640;DHT22;13497;48.322;16.204;2022-08-25T00:22:25;21.00;99.90
25640;DHT22;13497;48.322;16.204;2022-08-25T00:24:51;21.00;99.90
25640;DHT22;13497;48.322;16.204;2022-08-25T00:27:17;21.00;99.90
25640;DHT22;13497;48.322;16.204;2022-08-25T00:29:42;21.00;99.90
25640;DHT22;13497;48.322;16.204;2022-08-25T00:32:08;20.90;99.90
25640;DHT22;13497;48.322;16.204;2022-08-25T00:34:38;20.90;99.90
25640;DHT22;13497;48.322;16.204;2022-08-25T00:37:06;20.90;99.90
25640;DHT22;13497;48.322;16.204;2022-08-25T00:39:34;20.90;99.90
25640;DHT22;13497;48.322;16.204;2022-08-25T00:42:00;21.00;99.90
25640;DHT22;13497;48.322;16.204;2022-08-25T00:44:29;21.00;99.90
25640;DHT22;13497;48.322;16.204;2022-08-25T00:46:58;21.00;99.90
25640;DHT22;13497;48.322;16.204;2022-08-25T00:51:58;21.00;99.90
25640;DHT22;13497;48.322;16.204;2022-08-25T00:54:28;21.00;99.90
25640;DHT22;13497;48.322;16.204;2022-08-25T00:56:55;21.00;99.90
25640;DHT22;13497;48.322;16.204;2022-08-25T00:59:23;21.10;99.90
25640;DHT22;13497;48.322;16.204;2022-08-25T01:01:51;21.10;99.90
25640;DHT22;13497;48.322;16.204;2022-08-25T01:04:18;21.10;99.90
25640;DHT22;13497;48.322;16.204;2022-08-25T01:06:44;21.10;99.90
25640;DHT22;13497;48.322;16.204;2022-08-25T01:09:12;21.10;99.90
25640;DHT22;13497;48.322;16.204;2022-08-25T01:11:42;21.20;99.90
25640;DHT22;13497;48.322;16.204;2022-08-25T01:14:10;21.10;99.90
25640;DHT22;13497;48.322;16.204;2022-08-25T01:16:38;21.00;99.90
25640;DHT22;13497;48.322;16.204;2022-08-25T01:19:08;21.00;99.90
25640;DHT22;13497;48.322;16.204;2022-08-25T01:21:48;20.90;99.90
25640;DHT22;13497;48.322;16.204;2022-08-25T01:27:08;20.80;99.90
25640;DHT22;13497;48.322;16.204;2022-08-25T01:29:33;20.90;99.90
25640;DHT22;13497;48.322;16.204;2022-08-25T01:32:04;20.90;99.90
25640;DHT22;13497;48.322;16.204;2022-08-25T01:34:32;20.80;99.90
25640;DHT22;13497;48.322;16.204;2022-08-25T01:36:58;20.80;99.90
25640;DHT22;13497;48.322;16.204;2022-08-25T01:39:26;20.80;99.90
25640;DHT22;13497;48.322;16.204;2022-08-25T01:44:24;20.80;99.90
25640;DHT22;13497;48.322;16.204;2022-08-25T01:46:50;20.80;99.90
25640;DHT22;13497;48.322;16.204;2022-08-25T01:49:16;20.80;99.90
25640;DHT22;13497;48.322;16.204;2022-08-25T01:51:43;20.80;99.90
25640;DHT22;13497;48.322;16.204;2022-08-25T01:54:11;20.90;99.90
25640;DHT22;13497;48.322;16.204;2022-08-25T01:56:37;20.90;99.90
25640;DHT22;13497;48.322;16.204;2022-08-25T01:59:02;21.00;99.90
25640;DHT22;13497;48.322;16.204;2022-08-25T02:01:28;21.00;99.90
25640;DHT22;13497;48.322;16.204;2022-08-25T02:03:55;21.10;99.90
25640;DHT22;13497;48.322;16.204;2022-08-25T02:06:25;21.10;99.90
25640;DHT22;13497;48.322;16.204;2022-08-25T02:08:53;21.00;99.90
25640;DHT22;13497;48.322;16.204;2022-08-25T02:11:19;20.90;99.90
25640;DHT22;13497;48.322;16.204;2022-08-25T02:13:46;20.90;99.90
25640;DHT22;13497;48.322;16.204;2022-08-25T02:16:14;20.90;99.90
25640;DHT22;13497;48.322;16.204;2022-08-25T02:18:41;20.90;99.90
25640;DHT22;13497;48.322;16.204;2022-08-25T02:21:06;20.80;99.90
25640;DHT22;13497;48.322;16.204;2022-08-25T02:23:32;20.90;99.90
25640;DHT22;13497;48.322;16.204;2022-08-25T02:25:57;20.90;99.90
25640;DHT22;13497;48.322;16.204;2022-08-25T02:28:23;20.90;99.90
25640;DHT22;13497;48.322;16.204;2022-08-25T02:30:49;20.90;99.90
25640;DHT22;13497;48.322;16.204;2022-08-25T02:33:17;20.90;99.90
25640;DHT22;13497;48.322;16.204;2022-08-25T02:35:42;20.90;99.90
25640;DHT22;13497;48.322;16.204;2022-08-25T02:38:09;21.00;99.90
25640;DHT22;13497;48.322;16.204;2022-08-25T02:40:34;21.00;99.90
25640;DHT22;13497;48.322;16.204;2022-08-25T02:43:00;21.00;99.90
25640;DHT22;13497;48.322;16.204;2022-08-25T02:45:26;21.00;99.90
25640;DHT22;13497;48.322;16.204;2022-08-25T02:47:52;21.00;99.90
25640;DHT22;13497;48.322;16.204;2022-08-25T02:50:18;20.90;99.90
25640;DHT22;13497;48.322;16.204;2022-08-25T02:52:43;20.90;99.90
25640;DHT22;13497;48.322;16.204;2022-08-25T02:55:10;20.90;99.90
25640;DHT22;13497;48.322;16.204;2022-08-25T02:57:39;20.90;99.90
25640;DHT22;13497;48.322;16.204;2022-08-25T03:00:05;21.00;99.90
25640;DHT22;13497;48.322;16.204;2022-08-25T03:02:31;20.90;99.90
25640;DHT22;13497;48.322;16.204;2022-08-25T03:04:57;20.90;99.90
25640;DHT22;13497;48.322;16.204;2022-08-25T03:07:23;20.90;99.90
25640;DHT22;13497;48.322;16.204;2022-08-25T03:09:48;20.90;99.90
25640;DHT22;13497;48.322;16.204;2022-08-25T03:12:14;21.00;99.90
25640;DHT22;13497;48.322;16.204;2022-08-25T03:14:39;21.00;99.90
25640;DHT22;13497;48.322;16.204;2022-08-25T03:17:06;21.00;99.90
25640;DHT22;13497;48.322;16.204;2022-08-25T03:19:31;21.10;99.90
25640;DHT22;13497;48.322;16.204;2022-08-25T03:21:57;21.00;99.90
25640;DHT22;13497;48.322;16.204;2022-08-25T03:24:23;21.00;99.90
25640;DHT22;13497;48.322;16.204;2022-08-25T03:26:49;21.10;99.90
25640;DHT22;13497;48.322;16.204;2022-08-25T03:29:19;21.10;99.90
25640;DHT22;13497;48.322;16.204;2022-08-25T03:31:45;21.10;99.90
25640;DHT22;13497;48.322;16.204;2022-08-25T03:34:11;21.10;99.90
25640;DHT22;13497;48.322;16.204;2022-08-25T03:36:37;21.10;99.90
25640;DHT22;13497;48.322;16.204;2022-08-25T03:39:03;21.10;99.90
25640;DHT22;13497;48.322;16.204;2022-08-25T03:41:30;21.10;99.90
25640;DHT22;13497;48.322;16.204;2022-08-25T03:43:57;21.10;99.90
25640;DHT22;13497;48.322;16.204;2022-08-25T03:46:24;21.10;99.90
25640;DHT22;13497;48.322;16.204;2022-08-25T03:48:50;21.10;99.90
25640;DHT22;13497;48.322;16.204;2022-08-25T03:51:20;21.10;99.90
25640;DHT22;13497;48.322;16.204;2022-08-25T03:53:46;21.10;99.90
25640;DHT22;13497;48.322;16.204;2022-08-25T03:56:11;21.10;99.90
25640;DHT22;13497;48.322;16.204;2022-08-25T03:58:37;21.20;99.90
25640;DHT22;13497;48.322;16.204;2022-08-25T04:01:03;21.20;99.90
25640;DHT22;13497;48.322;16.204;2022-08-25T04:03:28;21.20;99.90
25640;DHT22;13497;48.322;16.204;2022-08-25T04:05:54;21.20;99.90
25640;DHT22;13497;48.322;16.204;2022-08-25T04:08:19;21.20;99.90
25640;DHT22;13497;48.322;16.204;2022-08-25T04:10:45;21.20;99.90
25640;DHT22;13497;48.322;16.204;2022-08-25T04:13:10;21.10;99.90
25640;DHT22;13497;48.322;16.204;2022-08-25T04:15:39;21.20;99.90
25640;DHT22;13497;48.322;16.204;2022-08-25T04:18:06;21.10;99.90
25640;DHT22;13497;48.322;16.204;2022-08-25T04:20:31;21.20;99.90
25640;DHT22;13497;48.322;16.204;2022-08-25T04:22:57;21.20;99.90
25640;DHT22;13497;48.322;16.204;2022-08-25T04:25:25;21.20;99.90
25640;DHT22;13497;48.322;16.204;2022-08-25T04:27:52;21.20;99.90
25640;DHT22;13497;48.322;16.204;2022-08-25T04:30:17;21.20;99.90
25640;DHT22;13497;48.322;16.204;2022-08-25T04:32:43;21.20;99.90
25640;DHT22;13497;48.322;16.204;2022-08-25T04:35:08;21.30;99.90
25640;DHT22;13497;48.322;16.204;2022-08-25T04:37:34;21.20;99.90
25640;DHT22;13497;48.322;16.204;2022-08-25T04:40:00;21.30;99.90
25640;DHT22;13497;48.322;16.204;2022-08-25T04:42:26;21.30;99.90
25640;DHT22;13497;48.322;16.204;2022-08-25T04:44:51;21.30;99.90
25640;DHT22;13497;48.322;16.204;2022-08-25T04:47:18;21.30;99.90
25640;DHT22;13497;48.322;16.204;2022-08-25T04:49:44;21.30;99.90
25640;DHT22;13497;48.322;16.204;2022-08-25T04:52:09;21.30;99.90
25640;DHT22;13497;48.322;16.204;2022-08-25T04:54:35;21.30;99.90
25640;DHT22;13497;48.322;16.204;2022-08-25T04:57:00;21.40;99.90
25640;DHT22;13497;48.322;16.204;2022-08-25T04:59:26;21.40;99.90
25640;DHT22;13497;48.322;16.204;2022-08-25T05:01:52;21.40;99.90
25640;DHT22;13497;48.322;16.204;2022-08-25T05:04:19;21.40;99.90
25640;DHT22;13497;48.322;16.204;2022-08-25T05:06:45;21.40;99.90
25640;DHT22;13497;48.322;16.204;2022-08-25T05:09:11;21.40;99.90
25640;DHT22;13497;48.322;16.204;2022-08-25T05:11:36;21.40;99.90
25640;DHT22;13497;48.322;16.204;2022-08-25T05:14:02;21.50;99.90
25640;DHT22;13497;48.322;16.204;2022-08-25T05:16:28;21.60;99.90
25640;DHT22;13497;48.322;16.204;2022-08-25T05:18:54;21.60;99.90
25640;DHT22;13497;48.322;16.204;2022-08-25T05:21:23;21.60;99.90
25640;DHT22;13497;48.322;16.204;2022-08-25T05:23:52;21.60;99.90
25640;DHT22;13497;48.322;16.204;2022-08-25T05:26:19;21.60;99.90
25640;DHT22;13497;48.322;16.204;2022-08-25T05:28:45;21.60;99.90
25640;DHT22;13497;48.322;16.204;2022-08-25T05:31:12;21.60;99.90
25640;DHT22;13497;48.322;16.204;2022-08-25T05:33:39;21.60;99.90
25640;DHT22;13497;48.322;16.204;2022-08-25T05:36:05;21.60;99.90
25640;DHT22;13497;48.322;16.204;2022-08-25T05:38:31;21.70;99.90
25640;DHT22;13497;48.322;16.204;2022-08-25T05:40:57;21.70;99.90
25640;DHT22;13497;48.322;16.204;2022-08-25T05:43:24;21.70;99.90
25640;DHT22;13497;48.322;16.204;2022-08-25T05:45:52;21.70;99.90
25640;DHT22;13497;48.322;16.204;2022-08-25T05:48:18;21.80;99.90
25640;DHT22;13497;48.322;16.204;2022-08-25T05:50:49;21.80;99.90
25640;DHT22;13497;48.322;16.204;2022-08-25T05:53:15;22.00;99.90
25640;DHT22;13497;48.322;16.204;2022-08-25T05:55:43;22.10;99.90
25640;DHT22;13497;48.322;16.204;2022-08-25T05:58:09;22.20;99.90
25640;DHT22;13497;48.322;16.204;2022-08-25T06:00:34;22.20;99.90
25640;DHT22;13497;48.322;16.204;2022-08-25T06:03:01;22.30;99.90
25640;DHT22;13497;48.322;16.204;2022-08-25T06:05:26;22.40;99.90
25640;DHT22;13497;48.322;16.204;2022-08-25T06:07:54;22.40;99.90
25640;DHT22;13497;48.322;16.204;2022-08-25T06:10:19;22.40;99.90
25640;DHT22;13497;48.322;16.204;2022-08-25T06:12:46;22.50;99.90
25640;DHT22;13497;48.322;16.204;2022-08-25T06:15:14;22.50;99.90
25640;DHT22;13497;48.322;16.204;2022-08-25T06:17:39;22.60;99.90
25640;DHT22;13497;48.322;16.204;2022-08-25T06:20:11;22.70;99.90
25640;DHT22;13497;48.322;16.204;2022-08-25T06:22:37;22.80;99.90
25640;DHT22;13497;48.322;16.204;2022-08-25T06:25:03;23.00;99.90
25640;DHT22;13497;48.322;16.204;2022-08-25T06:27:29;23.00;99.90
25640;DHT22;13497;48.322;16.204;2022-08-25T06:29:55;23.00;99.90
25640;DHT22;13497;48.322;16.204;2022-08-25T06:32:20;23.00;99.90
25640;DHT22;13497;48.322;16.204;2022-08-25T06:34:46;23.10;99.90
25640;DHT22;13497;48.322;16.204;2022-08-25T06:37:11;23.00;99.90
25640;DHT22;13497;48.322;16.204;2022-08-25T06:39:37;23.00;99.90
25640;DHT22;13497;48.322;16.204;2022-08-25T06:42:03;22.90;99.90
25640;DHT22;13497;48.322;16.204;2022-08-25T06:44:28;22.90;99.90
25640;DHT22;13497;48.322;16.204;2022-08-25T06:46:54;22.80;99.90
25640;DHT22;13497;48.322;16.204;2022-08-25T06:49:20;22.90;99.90
25640;DHT22;13497;48.322;16.204;2022-08-25T06:51:45;22.90;99.90
25640;DHT22;13497;48.322;16.204;2022-08-25T06:54:11;23.00;99.90
25640;DHT22;13497;48.322;16.204;2022-08-25T06:56:38;23.00;99.90
25640;DHT22;13497;48.322;16.204;2022-08-25T06:59:04;23.10;99.90
25640;DHT22;13497;48.322;16.204;2022-08-25T07:01:30;23.20;99.90
25640;DHT22;13497;48.322;16.204;2022-08-25T07:03:56;23.30;99.90
25640;DHT22;13497;48.322;16.204;2022-08-25T07:06:24;23.50;99.90
25640;DHT22;13497;48.322;16.204;2022-08-25T07:08:50;23.60;99.90
25640;DHT22;13497;48.322;16.204;2022-08-25T07:11:16;23.60;99.90
25640;DHT22;13497;48.322;16.204;2022-08-25T07:13:42;23.70;99.90
25640;DHT22;13497;48.322;16.204;2022-08-25T07:16:08;23.70;99.90
25640;DHT22;13497;48.322;16.204;2022-08-25T07:18:35;23.80;99.90
25640;DHT22;13497;48.322;16.204;2022-08-25T07:21:00;24.00;99.90
25640;DHT22;13497;48.322;16.204;2022-08-25T07:23:26;24.10;99.90
25640;DHT22;13497;48.322;16.204;2022-08-25T07:25:52;24.10;99.90
25640;DHT22;13497;48.322;16.204;2022-08-25T07:28:19;24.10;99.90
25640;DHT22;13497;48.322;16.204;2022-08-25T07:30:45;24.10;99.90
25640;DHT22;13497;48.322;16.204;2022-08-25T07:33:10;24.10;99.90
25640;DHT22;13497;48.322;16.204;2022-08-25T07:35:36;23.90;99.90
25640;DHT22;13497;48.322;16.204;2022-08-25T07:38:02;23.80;99.90
25640;DHT22;13497;48.322;16.204;2022-08-25T07:40:30;23.80;99.90
25640;DHT22;13497;48.322;16.204;2022-08-25T07:42:58;23.90;99.90
25640;DHT22;13497;48.322;16.204;2022-08-25T07:45:25;23.90;99.90
25640;DHT22;13497;48.322;16.204;2022-08-25T07:47:58;24.00;99.90
25640;DHT22;13497;48.322;16.204;2022-08-25T07:50:24;24.20;99.90
25640;DHT22;13497;48.322;16.204;2022-08-25T07:52:50;24.50;99.90
25640;DHT22;13497;48.322;16.204;2022-08-25T07:55:15;24.80;99.90
25640;DHT22;13497;48.322;16.204;2022-08-25T07:57:41;25.00;99.90
25640;DHT22;13497;48.322;16.204;2022-08-25T08:00:08;25.20;99.90
25640;DHT22;13497;48.322;16.204;2022-08-25T08:02:36;25.30;99.90
25640;DHT22;13497;48.322;16.204;2022-08-25T08:05:02;25.30;99.90
25640;DHT22;13497;48.322;16.204;2022-08-25T08:07:27;25.20;99.90
25640;DHT22;13497;48.322;16.204;2022-08-25T08:09:54;25.20;99.90
25640;DHT22;13497;48.322;16.204;2022-08-25T08:12:20;25.40;99.90
25640;DHT22;13497;48.322;16.204;2022-08-25T08:14:45;25.40;99.90
25640;DHT22;13497;48.322;16.204;2022-08-25T08:17:11;25.50;99.90
25640;DHT22;13497;48.322;16.204;2022-08-25T08:19:37;25.40;99.90
25640;DHT22;13497;48.322;16.204;2022-08-25T08:22:03;25.40;99.90
25640;DHT22;13497;48.322;16.204;2022-08-25T08:24:30;25.40;99.90
25640;DHT22;13497;48.322;16.204;2022-08-25T08:26:56;25.40;99.90
25640;DHT22;13497;48.322;16.204;2022-08-25T08:29:22;25.40;99.90
25640;DHT22;13497;48.322;16.204;2022-08-25T08:31:47;25.30;99.90
25640;DHT22;13497;48.322;16.204;2022-08-25T08:34:13;25.20;99.90
25640;DHT22;13497;48.322;16.204;2022-08-25T08:36:39;25.10;99.90
25640;DHT22;13497;48.322;16.204;2022-08-25T08:39:04;25.20;99.90
25640;DHT22;13497;48.322;16.204;2022-08-25T08:44:18;25.10;99.90
25640;DHT22;13497;48.322;16.204;2022-08-25T08:46:58;24.90;99.90
25640;DHT22;13497;48.322;16.204;2022-08-25T08:49:29;25.10;99.90
25640;DHT22;13497;48.322;16.204;2022-08-25T08:51:59;25.60;99.90
25640;DHT22;13497;48.322;16.204;2022-08-25T08:54:26;26.10;99.90
25640;DHT22;13497;48.322;16.204;2022-08-25T08:56:55;26.40;99.90
25640;DHT22;13497;48.322;16.204;2022-08-25T08:59:23;26.60;99.90
25640;DHT22;13497;48.322;16.204;2022-08-25T09:01:51;26.40;99.90
25640;DHT22;13497;48.322;16.204;2022-08-25T09:04:40;26.20;99.90
25640;DHT22;13497;48.322;16.204;2022-08-25T09:07:43;26.20;99.90
25640;DHT22;13497;48.322;16.204;2022-08-25T09:10:00;26.30;99.90
25640;DHT22;13497;48.322;16.204;2022-08-25T09:12:33;26.50;99.90
25640;DHT22;13497;48.322;16.204;2022-08-25T09:17:58;26.40;99.90
25640;DHT22;13497;48.322;16.204;2022-08-25T09:25:37;26.00;99.90
25640;DHT22;13497;48.322;16.204;2022-08-25T09:28:06;25.90;99.90
25640;DHT22;13497;48.322;16.204;2022-08-25T09:30:41;26.10;99.90
25640;DHT22;13497;48.322;16.204;2022-08-25T09:33:09;26.30;99.90
25640;DHT22;13497;48.322;16.204;2022-08-25T09:35:38;26.60;99.90
25640;DHT22;13497;48.322;16.204;2022-08-25T09:38:05;26.80;99.90
25640;DHT22;13497;48.322;16.204;2022-08-25T09:40:34;27.20;99.90
25640;DHT22;13497;48.322;16.204;2022-08-25T09:43:01;27.30;99.90
25640;DHT22;13497;48.322;16.204;2022-08-25T09:45:38;27.50;99.90
25640;DHT22;13497;48.322;16.204;2022-08-25T09:48:24;27.60;99.90
25640;DHT22;13497;48.322;16.204;2022-08-25T09:50:50;27.60;99.90
25640;DHT22;13497;48.322;16.204;2022-08-25T09:53:17;27.50;99.90
25640;DHT22;13497;48.322;16.204;2022-08-25T09:55:43;27.40;99.90
25640;DHT22;13497;48.322;16.204;2022-08-25T09:58:17;27.30;99.90
25640;DHT22;13497;48.322;16.204;2022-08-25T10:00:43;27.40;99.90
25640;DHT22;13497;48.322;16.204;2022-08-25T10:03:13;27.20;99.90
25640;DHT22;13497;48.322;16.204;2022-08-25T10:10:56;26.80;99.90
25640;DHT22;13497;48.322;16.204;2022-08-25T10:13:32;26.90;99.90
25640;DHT22;13497;48.322;16.204;2022-08-25T10:16:20;26.80;99.90
25640;DHT22;13497;48.322;16.204;2022-08-25T10:18:43;26.60;99.90
25640;DHT22;13497;48.322;16.204;2022-08-25T10:21:11;26.70;99.90
25640;DHT22;13497;48.322;16.204;2022-08-25T10:23:38;26.80;99.90
25640;DHT22;13497;48.322;16.204;2022-08-25T10:26:09;26.90;99.90
25640;DHT22;13497;48.322;16.204;2022-08-25T10:29:01;27.20;99.90
25640;DHT22;13497;48.322;16.204;2022-08-25T10:31:32;27.50;99.90
25640;DHT22;13497;48.322;16.204;2022-08-25T10:36:38;27.70;99.90
25640;DHT22;13497;48.322;16.204;2022-08-25T10:39:11;27.70;99.90
25640;DHT22;13497;48.322;16.204;2022-08-25T10:49:39;28.30;99.90
25640;DHT22;13497;48.322;16.204;2022-08-25T10:52:17;28.70;99.90
25640;DHT22;13497;48.322;16.204;2022-08-25T10:54:57;28.80;99.90
25640;DHT22;13497;48.322;16.204;2022-08-25T11:04:52;27.60;99.90
25640;DHT22;13497;48.322;16.204;2022-08-25T11:09:46;27.60;99.90
25640;DHT22;13497;48.322;16.204;2022-08-25T11:12:13;27.60;99.90
25640;DHT22;13497;48.322;16.204;2022-08-25T11:14:42;27.60;99.90
25640;DHT22;13497;48.322;16.204;2022-08-25T11:17:18;27.50;99.90
25640;DHT22;13497;48.322;16.204;2022-08-25T11:19:46;27.70;99.90
25640;DHT22;13497;48.322;16.204;2022-08-25T11:22:22;27.90;99.90
25640;DHT22;13497;48.322;16.204;2022-08-25T11:27:22;28.20;99.90
25640;DHT22;13497;48.322;16.204;2022-08-25T11:29:52;28.00;99.90
25640;DHT22;13497;48.322;16.204;2022-08-25T11:32:20;27.90;99.90
25640;DHT22;13497;48.322;16.204;2022-08-25T11:34:49;27.80;99.90
25640;DHT22;13497;48.322;16.204;2022-08-25T11:37:22;27.80;99.90
25640;DHT22;13497;48.322;16.204;2022-08-25T11:47:32;27.70;99.90
25640;DHT22;13497;48.322;16.204;2022-08-25T11:50:01;27.90;99.90
25640;DHT22;13497;48.322;16.204;2022-08-25T11:55:04;28.20;99.90
25640;DHT22;13497;48.322;16.204;2022-08-25T11:57:30;28.30;99.90
25640;DHT22;13497;48.322;16.204;2022-08-25T13:24:29;29.10;97.40
25640;DHT22;13497;48.322;16.204;2022-08-25T13:27:00;29.20;96.00
25640;DHT22;13497;48.322;16.204;2022-08-25T13:29:30;29.30;95.80
25640;DHT22;13497;48.322;16.204;2022-08-25T13:32:15;29.30;95.40
25640;DHT22;13497;48.322;16.204;2022-08-25T13:34:41;29.40;95.00
25640;DHT22;13497;48.322;16.204;2022-08-25T13:37:08;29.50;95.40
25640;DHT22;13497;48.322;16.204;2022-08-25T13:40:12;29.50;94.90
25640;DHT22;13497;48.322;16.204;2022-08-25T13:42:41;29.30;94.90
25640;DHT22;13497;48.322;16.204;2022-08-25T13:45:07;29.20;95.20
25640;DHT22;13497;48.322;16.204;2022-08-25T13:47:35;29.30;96.10
25640;DHT22;13497;48.322;16.204;2022-08-25T13:52:57;29.60;94.90
25640;DHT22;13497;48.322;16.204;2022-08-25T13:55:24;29.90;93.90
25640;DHT22;13497;48.322;16.204;2022-08-25T13:57:50;29.80;93.90
25640;DHT22;13497;48.322;16.204;2022-08-25T14:00:24;29.90;94.10
25640;DHT22;13497;48.322;16.204;2022-08-25T14:02:52;30.00;94.10
25640;DHT22;13497;48.322;16.204;2022-08-25T14:05:31;29.90;93.70
25640;DHT22;13497;48.322;16.204;2022-08-25T14:07:57;29.70;94.10
25640;DHT22;13497;48.322;16.204;2022-08-25T14:10:31;29.90;94.00
25640;DHT22;13497;48.322;16.204;2022-08-25T14:13:58;30.00;93.80
25640;DHT22;13497;48.322;16.204;2022-08-25T14:15:52;30.00;93.60
25640;DHT22;13497;48.322;16.204;2022-08-25T14:18:19;29.70;93.30
25640;DHT22;13497;48.322;16.204;2022-08-25T14:20:49;29.40;93.60
25640;DHT22;13497;48.322;16.204;2022-08-25T14:23:17;29.30;94.20
25640;DHT22;13497;48.322;16.204;2022-08-25T14:25:43;29.40;94.00
25640;DHT22;13497;48.322;16.204;2022-08-25T14:28:11;29.30;94.10
25640;DHT22;13497;48.322;16.204;2022-08-25T14:30:45;29.50;94.10
25640;DHT22;13497;48.322;16.204;2022-08-25T14:33:11;29.80;93.90
25640;DHT22;13497;48.322;16.204;2022-08-25T14:35:37;29.70;94.00
25640;DHT22;13497;48.322;16.204;2022-08-25T14:38:06;29.50;93.60
25640;DHT22;13497;48.322;16.204;2022-08-25T14:40:32;29.60;93.70
25640;DHT22;13497;48.322;16.204;2022-08-25T14:42:58;29.30;93.20
25640;DHT22;13497;48.322;16.204;2022-08-25T14:45:23;29.30;93.40
25640;DHT22;13497;48.322;16.204;2022-08-25T14:47:50;29.20;92.50
25640;DHT22;13497;48.322;16.204;2022-08-25T14:50:15;29.20;93.00
25640;DHT22;13497;48.322;16.204;2022-08-25T14:52:42;29.10;93.30
25640;DHT22;13497;48.322;16.204;2022-08-25T14:55:08;29.00;93.60
25640;DHT22;13497;48.322;16.204;2022-08-25T14:57:34;29.10;93.30
25640;DHT22;13497;48.322;16.204;2022-08-25T15:00:00;29.30;93.00
25640;DHT22;13497;48.322;16.204;2022-08-25T15:02:25;29.50;93.00
25640;DHT22;13497;48.322;16.204;2022-08-25T15:04:57;29.50;92.70
25640;DHT22;13497;48.322;16.204;2022-08-25T15:07:24;29.50;92.50
25640;DHT22;13497;48.322;16.204;2022-08-25T15:10:09;29.30;92.40
25640;DHT22;13497;48.322;16.204;2022-08-25T15:12:35;29.50;92.70
25640;DHT22;13497;48.322;16.204;2022-08-25T15:15:00;29.50;92.80
25640;DHT22;13497;48.322;16.204;2022-08-25T15:17:29;29.50;92.80
25640;DHT22;13497;48.322;16.204;2022-08-25T15:19:55;29.50;92.70
25640;DHT22;13497;48.322;16.204;2022-08-25T15:22:21;29.50;92.60
25640;DHT22;13497;48.322;16.204;2022-08-25T15:24:47;29.30;92.90
25640;DHT22;13497;48.322;16.204;2022-08-25T15:27:13;29.10;93.00
25640;DHT22;13497;48.322;16.204;2022-08-25T15:29:39;28.90;93.30
25640;DHT22;13497;48.322;16.204;2022-08-25T15:32:05;28.80;93.60
25640;DHT22;13497;48.322;16.204;2022-08-25T15:34:31;29.00;93.50
25640;DHT22;13497;48.322;16.204;2022-08-25T15:36:57;29.10;93.70
25640;DHT22;13497;48.322;16.204;2022-08-25T15:39:24;29.10;93.70
25640;DHT22;13497;48.322;16.204;2022-08-25T15:41:50;29.20;93.10
25640;DHT22;13497;48.322;16.204;2022-08-25T15:44:16;29.10;93.40
25640;DHT22;13497;48.322;16.204;2022-08-25T15:46:42;29.10;93.30
25640;DHT22;13497;48.322;16.204;2022-08-25T15:49:08;29.10;93.60
25640;DHT22;13497;48.322;16.204;2022-08-25T15:51:33;29.10;93.70
25640;DHT22;13497;48.322;16.204;2022-08-25T15:53:59;29.00;93.40
25640;DHT22;13497;48.322;16.204;2022-08-25T15:56:25;28.80;93.80
25640;DHT22;13497;48.322;16.204;2022-08-25T15:58:51;28.80;93.70
25640;DHT22;13497;48.322;16.204;2022-08-25T16:01:19;28.80;93.90
25640;DHT22;13497;48.322;16.204;2022-08-25T16:03:46;28.90;94.00
25640;DHT22;13497;48.322;16.204;2022-08-25T16:06:11;28.90;94.00
25640;DHT22;13497;48.322;16.204;2022-08-25T16:08:40;28.90;94.70
25640;DHT22;13497;48.322;16.204;2022-08-25T16:11:14;28.70;94.90
25640;DHT22;13497;48.322;16.204;2022-08-25T16:13:40;28.70;95.00
25640;DHT22;13497;48.322;16.204;2022-08-25T16:16:05;28.50;95.00
25640;DHT22;13497;48.322;16.204;2022-08-25T16:18:31;28.50;95.60
25640;DHT22;13497;48.322;16.204;2022-08-25T16:20:56;28.40;95.80
25640;DHT22;13497;48.322;16.204;2022-08-25T16:23:22;28.40;96.20
25640;DHT22;13497;48.322;16.204;2022-08-25T16:25:47;28.20;96.30
25640;DHT22;13497;48.322;16.204;2022-08-25T16:28:14;28.10;96.40
25640;DHT22;13497;48.322;16.204;2022-08-25T16:30:43;28.00;96.80
25640;DHT22;13497;48.322;16.204;2022-08-25T16:33:09;27.90;97.10
25640;DHT22;13497;48.322;16.204;2022-08-25T16:35:35;27.80;97.30
25640;DHT22;13497;48.322;16.204;2022-08-25T16:38:00;27.60;97.60
25640;DHT22;13497;48.322;16.204;2022-08-25T16:40:26;27.50;97.70
25640;DHT22;13497;48.322;16.204;2022-08-25T16:42:52;27.50;98.10
25640;DHT22;13497;48.322;16.204;2022-08-25T16:45:19;27.40;98.20
25640;DHT22;13497;48.322;16.204;2022-08-25T16:47:45;27.40;98.50
25640;DHT22;13497;48.322;16.204;2022-08-25T16:50:11;27.30;98.20
25640;DHT22;13497;48.322;16.204;2022-08-25T16:52:37;27.40;98.30
25640;DHT22;13497;48.322;16.204;2022-08-25T16:55:21;27.30;98.50
25640;DHT22;13497;48.322;16.204;2022-08-25T16:57:48;27.20;98.70
25640;DHT22;13497;48.322;16.204;2022-08-25T17:00:17;27.10;98.90
25640;DHT22;13497;48.322;16.204;2022-08-25T17:02:43;27.00;99.60
25640;DHT22;13497;48.322;16.204;2022-08-25T17:05:09;26.90;99.80
25640;DHT22;13497;48.322;16.204;2022-08-25T17:07:35;26.80;99.90
25640;DHT22;13497;48.322;16.204;2022-08-25T17:10:02;26.60;99.90
25640;DHT22;13497;48.322;16.204;2022-08-25T17:12:28;26.50;99.90
25640;DHT22;13497;48.322;16.204;2022-08-25T17:14:53;26.30;99.90
25640;DHT22;13497;48.322;16.204;2022-08-25T17:17:19;26.20;99.90
25640;DHT22;13497;48.322;16.204;2022-08-25T17:19:45;26.20;99.90
25640;DHT22;13497;48.322;16.204;2022-08-25T17:22:10;26.10;99.90
25640;DHT22;13497;48.322;16.204;2022-08-25T17:24:40;26.10;99.90
25640;DHT22;13497;48.322;16.204;2022-08-25T17:27:06;25.90;99.90
25640;DHT22;13497;48.322;16.204;2022-08-25T17:29:32;25.70;99.90
25640;DHT22;13497;48.322;16.204;2022-08-25T17:31:59;25.40;99.90
25640;DHT22;13497;48.322;16.204;2022-08-25T17:34:25;25.30;99.90
25640;DHT22;13497;48.322;16.204;2022-08-25T17:36:51;25.00;99.90
25640;DHT22;13497;48.322;16.204;2022-08-25T17:39:18;24.70;99.90
25640;DHT22;13497;48.322;16.204;2022-08-25T17:41:44;24.50;99.90